sensor_id;sensor_type;location;lat;lon;timestamp;P1;durP1;ratioP1;P2;durP2;ratioP2
7033;SDS011;3558;53.176;10.412;2024-02-16T00:00:05;3.40;;;1.90;;
7033;SDS011;3558;53.176;10.412;2024-02-16T00:02:32;3.10;;;2.03;;
7033;SDS011;3558;53.176;10.412;2024-02-16T00:04:57;3.10;;;1.92;;
7033;SDS011;3558;53.176;10.412;2024-02-16T00:07:24;2.60;;;1.85;;
7033;SDS011;3558;53.176;10.412;2024-02-16T00:09:49;2.22;;;1.75;;
7033;SDS011;3558;53.176;10.412;2024-02-16T00:12:15;3.30;;;2.03;;
7033;SDS011;3558;53.176;10.412;2024-02-16T00:14:41;2.80;;;1.90;;
7033;SDS011;3558;53.176;10.412;2024-02-16T00:17:07;2.50;;;1.98;;
7033;SDS011;3558;53.176;10.412;2024-02-16T00:19:35;2.42;;;1.80;;
7033;SDS011;3558;53.176;10.412;2024-02-16T00:22:00;1.97;;;1.73;;
7033;SDS011;3558;53.176;10.412;2024-02-16T00:24:26;2.50;;;1.90;;
7033;SDS011;3558;53.176;10.412;2024-02-16T00:26:51;2.65;;;1.90;;
7033;SDS011;3558;53.176;10.412;2024-02-16T00:29:17;2.90;;;1.90;;
7033;SDS011;3558;53.176;10.412;2024-02-16T00:31:44;2.53;;;1.70;;
7033;SDS011;3558;53.176;10.412;2024-02-16T00:34:09;2.75;;;1.77;;
7033;SDS011;3558;53.176;10.412;2024-02-16T00:36:35;3.00;;;1.70;;
7033;SDS011;3558;53.176;10.412;2024-02-16T00:39:01;2.42;;;1.50;;
7033;SDS011;3558;53.176;10.412;2024-02-16T00:41:28;2.40;;;1.50;;
7033;SDS011;3558;53.176;10.412;2024-02-16T00:43:54;2.05;;;1.50;;
7033;SDS011;3558;53.176;10.412;2024-02-16T00:46:21;2.42;;;1.60;;
7033;SDS011;3558;53.176;10.412;2024-02-16T00:48:47;2.67;;;1.60;;
7033;SDS011;3558;53.176;10.412;2024-02-16T00:51:14;2.40;;;1.60;;
7033;SDS011;3558;53.176;10.412;2024-02-16T00:53:39;1.88;;;1.50;;
7033;SDS011;3558;53.176;10.412;2024-02-16T00:56:05;2.40;;;1.53;;
7033;SDS011;3558;53.176;10.412;2024-02-16T00:58:32;1.98;;;1.50;;
7033;SDS011;3558;53.176;10.412;2024-02-16T01:00:57;2.78;;;1.70;;
7033;SDS011;3558;53.176;10.412;2024-02-16T01:03:23;3.03;;;1.60;;
7033;SDS011;3558;53.176;10.412;2024-02-16T01:05:51;2.03;;;1.50;;
7033;SDS011;3558;53.176;10.412;2024-02-16T01:08:17;2.20;;;1.60;;
7033;SDS011;3558;53.176;10.412;2024-02-16T01:10:42;1.70;;;1.47;;
7033;SDS011;3558;53.176;10.412;2024-02-16T01:13:08;2.60;;;1.60;;
7033;SDS011;3558;53.176;10.412;2024-02-16T01:15:33;2.50;;;1.50;;
7033;SDS011;3558;53.176;10.412;2024-02-16T01:17:59;1.83;;;1.30;;
7033;SDS011;3558;53.176;10.412;2024-02-16T01:20:25;2.23;;;1.60;;
7033;SDS011;3558;53.176;10.412;2024-02-16T01:22:51;2.27;;;1.57;;
7033;SDS011;3558;53.176;10.412;2024-02-16T01:25:17;2.00;;;1.60;;
7033;SDS011;3558;53.176;10.412;2024-02-16T01:27:43;1.98;;;1.50;;
7033;SDS011;3558;53.176;10.412;2024-02-16T01:30:08;3.00;;;1.70;;
7033;SDS011;3558;53.176;10.412;2024-02-16T01:32:34;1.50;;;1.30;;
7033;SDS011;3558;53.176;10.412;2024-02-16T01:35:00;1.73;;;1.33;;
7033;SDS011;3558;53.176;10.412;2024-02-16T01:37:25;2.38;;;1.40;;
7033;SDS011;3558;53.176;10.412;2024-02-16T01:39:51;2.27;;;1.40;;
7033;SDS011;3558;53.176;10.412;2024-02-16T01:42:16;2.70;;;1.50;;
7033;SDS011;3558;53.176;10.412;2024-02-16T01:44:42;2.77;;;1.40;;
7033;SDS011;3558;53.176;10.412;2024-02-16T01:47:07;1.92;;;1.40;;
7033;SDS011;3558;53.176;10.412;2024-02-16T01:49:33;2.25;;;1.42;;
7033;SDS011;3558;53.176;10.412;2024-02-16T01:51:59;1.95;;;1.30;;
7033;SDS011;3558;53.176;10.412;2024-02-16T01:54:25;2.50;;;1.33;;
7033;SDS011;3558;53.176;10.412;2024-02-16T01:56:50;1.98;;;1.48;;
7033;SDS011;3558;53.176;10.412;2024-02-16T01:59:16;1.90;;;1.40;;
7033;SDS011;3558;53.176;10.412;2024-02-16T02:01:42;2.83;;;1.40;;
7033;SDS011;3558;53.176;10.412;2024-02-16T02:04:08;2.07;;;1.40;;
7033;SDS011;3558;53.176;10.412;2024-02-16T02:06:33;2.00;;;1.50;;
7033;SDS011;3558;53.176;10.412;2024-02-16T02:08:59;2.50;;;1.50;;
7033;SDS011;3558;53.176;10.412;2024-02-16T02:11:24;1.85;;;1.30;;
7033;SDS011;3558;53.176;10.412;2024-02-16T02:13:50;1.20;;;1.10;;
7033;SDS011;3558;53.176;10.412;2024-02-16T02:16:15;2.40;;;1.23;;
7033;SDS011;3558;53.176;10.412;2024-02-16T02:18:42;1.80;;;1.30;;
7033;SDS011;3558;53.176;10.412;2024-02-16T02:21:08;1.60;;;1.13;;
7033;SDS011;3558;53.176;10.412;2024-02-16T02:23:34;2.10;;;1.33;;
7033;SDS011;3558;53.176;10.412;2024-02-16T02:26:00;1.92;;;1.38;;
7033;SDS011;3558;53.176;10.412;2024-02-16T02:28:26;1.70;;;1.20;;
7033;SDS011;3558;53.176;10.412;2024-02-16T03:45:57;2.03;;;1.50;;
7033;SDS011;3558;53.176;10.412;2024-02-16T03:48:22;3.87;;;1.30;;
7033;SDS011;3558;53.176;10.412;2024-02-16T03:50:48;1.83;;;1.10;;
7033;SDS011;3558;53.176;10.412;2024-02-16T03:53:13;2.27;;;1.30;;
7033;SDS011;3558;53.176;10.412;2024-02-16T03:55:39;2.50;;;1.37;;
7033;SDS011;3558;53.176;10.412;2024-02-16T03:58:04;2.10;;;1.30;;
7033;SDS011;3558;53.176;10.412;2024-02-16T04:00:30;2.00;;;1.40;;
7033;SDS011;3558;53.176;10.412;2024-02-16T04:02:57;1.70;;;1.20;;
7033;SDS011;3558;53.176;10.412;2024-02-16T04:05:22;2.87;;;1.37;;
7033;SDS011;3558;53.176;10.412;2024-02-16T04:07:48;1.45;;;1.10;;
7033;SDS011;3558;53.176;10.412;2024-02-16T04:10:14;1.98;;;1.30;;
7033;SDS011;3558;53.176;10.412;2024-02-16T04:12:39;1.40;;;1.20;;
7033;SDS011;3558;53.176;10.412;2024-02-16T04:15:05;1.67;;;1.17;;
7033;SDS011;3558;53.176;10.412;2024-02-16T04:17:31;1.73;;;1.30;;
7033;SDS011;3558;53.176;10.412;2024-02-16T04:19:56;1.58;;;1.20;;
7033;SDS011;3558;53.176;10.412;2024-02-16T04:22:22;1.57;;;1.10;;
7033;SDS011;3558;53.176;10.412;2024-02-16T04:24:47;1.50;;;1.10;;
7033;SDS011;3558;53.176;10.412;2024-02-16T04:27:13;2.10;;;1.20;;
7033;SDS011;3558;53.176;10.412;2024-02-16T04:29:38;1.70;;;1.20;;
7033;SDS011;3558;53.176;10.412;2024-02-16T04:32:04;1.42;;;1.20;;
7033;SDS011;3558;53.176;10.412;2024-02-16T04:34:29;2.10;;;1.37;;
7033;SDS011;3558;53.176;10.412;2024-02-16T04:36:55;1.88;;;1.20;;
7033;SDS011;3558;53.176;10.412;2024-02-16T04:39:20;2.00;;;1.40;;
7033;SDS011;3558;53.176;10.412;2024-02-16T04:41:46;1.23;;;1.00;;
7033;SDS011;3558;53.176;10.412;2024-02-16T04:44:11;1.50;;;1.10;;
7033;SDS011;3558;53.176;10.412;2024-02-16T04:46:37;1.45;;;1.17;;
7033;SDS011;3558;53.176;10.412;2024-02-16T04:49:03;1.43;;;1.13;;
7033;SDS011;3558;53.176;10.412;2024-02-16T04:51:28;1.70;;;1.20;;
7033;SDS011;3558;53.176;10.412;2024-02-16T04:53:54;1.60;;;1.20;;
7033;SDS011;3558;53.176;10.412;2024-02-16T04:56:19;2.13;;;1.13;;
7033;SDS011;3558;53.176;10.412;2024-02-16T04:58:45;1.92;;;1.27;;
7033;SDS011;3558;53.176;10.412;2024-02-16T05:01:12;1.60;;;1.20;;
7033;SDS011;3558;53.176;10.412;2024-02-16T05:03:38;1.20;;;1.10;;
7033;SDS011;3558;53.176;10.412;2024-02-16T05:06:06;2.22;;;1.30;;
7033;SDS011;3558;53.176;10.412;2024-02-16T05:08:31;2.20;;;1.30;;
7033;SDS011;3558;53.176;10.412;2024-02-16T05:10:57;1.60;;;1.20;;
7033;SDS011;3558;53.176;10.412;2024-02-16T05:13:22;2.53;;;1.40;;
7033;SDS011;3558;53.176;10.412;2024-02-16T05:15:49;2.45;;;1.10;;
7033;SDS011;3558;53.176;10.412;2024-02-16T05:18:14;2.10;;;1.33;;
7033;SDS011;3558;53.176;10.412;2024-02-16T05:20:40;1.50;;;1.00;;
7033;SDS011;3558;53.176;10.412;2024-02-16T05:23:05;1.55;;;1.02;;
7033;SDS011;3558;53.176;10.412;2024-02-16T05:25:31;2.03;;;1.10;;
7033;SDS011;3558;53.176;10.412;2024-02-16T05:27:56;1.50;;;1.20;;
7033;SDS011;3558;53.176;10.412;2024-02-16T05:30:22;1.20;;;1.00;;
7033;SDS011;3558;53.176;10.412;2024-02-16T05:32:47;1.60;;;1.20;;
7033;SDS011;3558;53.176;10.412;2024-02-16T05:35:14;1.40;;;1.10;;
7033;SDS011;3558;53.176;10.412;2024-02-16T05:37:41;1.58;;;1.17;;
7033;SDS011;3558;53.176;10.412;2024-02-16T05:40:16;1.60;;;1.20;;
7033;SDS011;3558;53.176;10.412;2024-02-16T05:42:55;1.67;;;1.10;;
7033;SDS011;3558;53.176;10.412;2024-02-16T05:45:22;1.40;;;1.20;;
7033;SDS011;3558;53.176;10.412;2024-02-16T05:47:48;2.70;;;1.23;;
7033;SDS011;3558;53.176;10.412;2024-02-16T05:50:14;1.80;;;1.20;;
7033;SDS011;3558;53.176;10.412;2024-02-16T05:52:41;1.77;;;1.15;;
7033;SDS011;3558;53.176;10.412;2024-02-16T05:55:07;1.70;;;1.10;;
7033;SDS011;3558;53.176;10.412;2024-02-16T05:57:33;1.73;;;1.20;;
7033;SDS011;3558;53.176;10.412;2024-02-16T06:00:00;1.38;;;1.05;;
7033;SDS011;3558;53.176;10.412;2024-02-16T06:02:26;2.25;;;1.10;;
7033;SDS011;3558;53.176;10.412;2024-02-16T06:04:52;1.85;;;1.30;;
7033;SDS011;3558;53.176;10.412;2024-02-16T06:07:18;1.70;;;1.10;;
7033;SDS011;3558;53.176;10.412;2024-02-16T06:09:43;2.30;;;1.10;;
7033;SDS011;3558;53.176;10.412;2024-02-16T06:12:09;1.60;;;1.02;;
7033;SDS011;3558;53.176;10.412;2024-02-16T06:14:35;1.80;;;1.20;;
7033;SDS011;3558;53.176;10.412;2024-02-16T06:17:01;1.65;;;1.05;;
7033;SDS011;3558;53.176;10.412;2024-02-16T06:19:28;3.17;;;1.20;;
7033;SDS011;3558;53.176;10.412;2024-02-16T06:21:53;1.20;;;1.00;;
7033;SDS011;3558;53.176;10.412;2024-02-16T06:24:23;1.30;;;1.00;;
7033;SDS011;3558;53.176;10.412;2024-02-16T06:26:49;1.80;;;1.00;;
7033;SDS011;3558;53.176;10.412;2024-02-16T06:29:16;1.60;;;1.00;;
7033;SDS011;3558;53.176;10.412;2024-02-16T06:31:42;1.43;;;1.00;;
7033;SDS011;3558;53.176;10.412;2024-02-16T06:34:07;1.80;;;1.10;;
7033;SDS011;3558;53.176;10.412;2024-02-16T06:36:33;1.33;;;1.00;;
7033;SDS011;3558;53.176;10.412;2024-02-16T06:38:59;1.58;;;0.90;;
7033;SDS011;3558;53.176;10.412;2024-02-16T06:41:24;2.05;;;1.20;;
7033;SDS011;3558;53.176;10.412;2024-02-16T06:43:50;1.80;;;1.20;;
7033;SDS011;3558;53.176;10.412;2024-02-16T06:46:15;2.30;;;1.10;;
7033;SDS011;3558;53.176;10.412;2024-02-16T06:48:41;1.53;;;1.07;;
7033;SDS011;3558;53.176;10.412;2024-02-16T06:51:07;1.60;;;1.27;;
7033;SDS011;3558;53.176;10.412;2024-02-16T06:53:32;1.60;;;1.10;;
7033;SDS011;3558;53.176;10.412;2024-02-16T06:55:58;2.10;;;1.00;;
7033;SDS011;3558;53.176;10.412;2024-02-16T06:58:23;1.88;;;1.10;;
7033;SDS011;3558;53.176;10.412;2024-02-16T07:00:49;2.00;;;1.17;;
7033;SDS011;3558;53.176;10.412;2024-02-16T07:03:14;1.60;;;1.10;;
7033;SDS011;3558;53.176;10.412;2024-02-16T07:05:40;1.42;;;0.93;;
7033;SDS011;3558;53.176;10.412;2024-02-16T07:08:06;1.10;;;0.97;;
7033;SDS011;3558;53.176;10.412;2024-02-16T07:10:32;2.20;;;1.20;;
7033;SDS011;3558;53.176;10.412;2024-02-16T07:12:58;1.60;;;1.08;;
7033;SDS011;3558;53.176;10.412;2024-02-16T07:15:23;1.85;;;1.05;;
7033;SDS011;3558;53.176;10.412;2024-02-16T07:17:51;1.73;;;1.10;;
7033;SDS011;3558;53.176;10.412;2024-02-16T07:20:16;1.35;;;0.98;;
7033;SDS011;3558;53.176;10.412;2024-02-16T07:22:43;1.53;;;0.93;;
7033;SDS011;3558;53.176;10.412;2024-02-16T07:25:11;1.80;;;1.20;;
7033;SDS011;3558;53.176;10.412;2024-02-16T07:27:37;2.30;;;1.20;;
7033;SDS011;3558;53.176;10.412;2024-02-16T07:30:03;1.80;;;1.05;;
7033;SDS011;3558;53.176;10.412;2024-02-16T07:32:29;2.05;;;1.05;;
7033;SDS011;3558;53.176;10.412;2024-02-16T07:34:54;1.60;;;1.00;;
7033;SDS011;3558;53.176;10.412;2024-02-16T07:37:20;1.93;;;1.10;;
7033;SDS011;3558;53.176;10.412;2024-02-16T07:39:45;1.47;;;0.97;;
7033;SDS011;3558;53.176;10.412;2024-02-16T07:42:11;1.48;;;1.00;;
7033;SDS011;3558;53.176;10.412;2024-02-16T07:44:38;1.60;;;1.00;;
7033;SDS011;3558;53.176;10.412;2024-02-16T07:47:04;1.45;;;1.08;;
7033;SDS011;3558;53.176;10.412;2024-02-16T07:49:29;2.17;;;1.10;;
7033;SDS011;3558;53.176;10.412;2024-02-16T07:51:55;1.50;;;1.10;;
7033;SDS011;3558;53.176;10.412;2024-02-16T07:54:20;2.03;;;1.08;;
7033;SDS011;3558;53.176;10.412;2024-02-16T07:56:46;2.13;;;1.20;;
7033;SDS011;3558;53.176;10.412;2024-02-16T07:59:11;3.43;;;1.20;;
7033;SDS011;3558;53.176;10.412;2024-02-16T08:01:37;1.73;;;1.03;;
7033;SDS011;3558;53.176;10.412;2024-02-16T08:04:03;2.90;;;1.03;;
7033;SDS011;3558;53.176;10.412;2024-02-16T08:06:29;1.50;;;1.00;;
7033;SDS011;3558;53.176;10.412;2024-02-16T08:08:54;1.83;;;1.10;;
7033;SDS011;3558;53.176;10.412;2024-02-16T08:11:20;1.67;;;1.20;;
7033;SDS011;3558;53.176;10.412;2024-02-16T08:13:46;2.17;;;1.00;;
7033;SDS011;3558;53.176;10.412;2024-02-16T08:16:12;1.38;;;0.98;;
7033;SDS011;3558;53.176;10.412;2024-02-16T08:18:38;1.70;;;1.17;;
7033;SDS011;3558;53.176;10.412;2024-02-16T08:21:03;2.00;;;1.00;;
7033;SDS011;3558;53.176;10.412;2024-02-16T08:23:29;2.17;;;1.00;;
7033;SDS011;3558;53.176;10.412;2024-02-16T08:25:55;2.17;;;1.10;;
7033;SDS011;3558;53.176;10.412;2024-02-16T08:28:22;2.03;;;1.20;;
7033;SDS011;3558;53.176;10.412;2024-02-16T08:30:47;1.70;;;1.20;;
7033;SDS011;3558;53.176;10.412;2024-02-16T08:33:13;1.92;;;1.20;;
7033;SDS011;3558;53.176;10.412;2024-02-16T08:35:38;1.53;;;1.20;;
7033;SDS011;3558;53.176;10.412;2024-02-16T08:38:04;1.37;;;1.00;;
7033;SDS011;3558;53.176;10.412;2024-02-16T08:40:29;1.80;;;1.10;;
7033;SDS011;3558;53.176;10.412;2024-02-16T08:42:55;1.97;;;1.07;;
7033;SDS011;3558;53.176;10.412;2024-02-16T08:45:20;1.33;;;1.10;;
7033;SDS011;3558;53.176;10.412;2024-02-16T08:47:46;1.38;;;1.15;;
7033;SDS011;3558;53.176;10.412;2024-02-16T08:50:11;1.33;;;1.00;;
7033;SDS011;3558;53.176;10.412;2024-02-16T08:52:37;2.43;;;1.30;;
7033;SDS011;3558;53.176;10.412;2024-02-16T08:55:03;2.13;;;1.17;;
7033;SDS011;3558;53.176;10.412;2024-02-16T08:57:31;2.40;;;1.27;;
7033;SDS011;3558;53.176;10.412;2024-02-16T08:59:56;2.10;;;1.40;;
7033;SDS011;3558;53.176;10.412;2024-02-16T09:02:22;3.20;;;1.67;;
7033;SDS011;3558;53.176;10.412;2024-02-16T09:04:47;2.47;;;1.50;;
7033;SDS011;3558;53.176;10.412;2024-02-16T09:07:13;1.90;;;1.30;;
7033;SDS011;3558;53.176;10.412;2024-02-16T09:09:39;1.60;;;1.33;;
7033;SDS011;3558;53.176;10.412;2024-02-16T09:12:04;3.27;;;1.23;;
7033;SDS011;3558;53.176;10.412;2024-02-16T09:14:30;1.50;;;1.15;;
7033;SDS011;3558;53.176;10.412;2024-02-16T09:16:57;2.20;;;1.20;;
7033;SDS011;3558;53.176;10.412;2024-02-16T09:19:22;1.58;;;1.20;;
7033;SDS011;3558;53.176;10.412;2024-02-16T09:21:48;2.27;;;1.10;;
7033;SDS011;3558;53.176;10.412;2024-02-16T09:24:16;1.75;;;1.20;;
7033;SDS011;3558;53.176;10.412;2024-02-16T09:26:43;1.57;;;1.00;;
7033;SDS011;3558;53.176;10.412;2024-02-16T09:29:11;1.67;;;1.10;;
7033;SDS011;3558;53.176;10.412;2024-02-16T09:31:42;1.40;;;1.10;;
7033;SDS011;3558;53.176;10.412;2024-02-16T09:34:08;1.50;;;1.20;;
7033;SDS011;3558;53.176;10.412;2024-02-16T09:36:34;1.42;;;1.10;;
7033;SDS011;3558;53.176;10.412;2024-02-16T09:39:01;1.75;;;1.10;;
7033;SDS011;3558;53.176;10.412;2024-02-16T09:41:26;1.83;;;1.10;;
7033;SDS011;3558;53.176;10.412;2024-02-16T09:43:53;1.73;;;1.17;;
7033;SDS011;3558;53.176;10.412;2024-02-16T09:46:19;2.42;;;1.20;;
7033;SDS011;3558;53.176;10.412;2024-02-16T09:48:46;2.55;;;1.20;;
7033;SDS011;3558;53.176;10.412;2024-02-16T09:51:17;1.92;;;1.10;;
7033;SDS011;3558;53.176;10.412;2024-02-16T09:53:43;1.70;;;0.90;;
7033;SDS011;3558;53.176;10.412;2024-02-16T09:56:12;1.53;;;0.90;;
7033;SDS011;3558;53.176;10.412;2024-02-16T09:58:38;2.20;;;1.00;;
7033;SDS011;3558;53.176;10.412;2024-02-16T10:01:03;2.10;;;1.00;;
7033;SDS011;3558;53.176;10.412;2024-02-16T10:03:29;1.77;;;1.07;;
7033;SDS011;3558;53.176;10.412;2024-02-16T10:06:07;1.60;;;1.10;;
7033;SDS011;3558;53.176;10.412;2024-02-16T10:08:46;2.38;;;1.15;;
7033;SDS011;3558;53.176;10.412;2024-02-16T10:11:20;1.35;;;1.02;;
7033;SDS011;3558;53.176;10.412;2024-02-16T10:16:27;1.77;;;1.00;;
7033;SDS011;3558;53.176;10.412;2024-02-16T10:18:57;1.60;;;1.08;;
7033;SDS011;3558;53.176;10.412;2024-02-16T10:21:30;1.40;;;0.98;;
7033;SDS011;3558;53.176;10.412;2024-02-16T10:24:05;2.25;;;1.02;;
7033;SDS011;3558;53.176;10.412;2024-02-16T10:26:36;1.60;;;0.93;;
7033;SDS011;3558;53.176;10.412;2024-02-16T10:29:03;1.58;;;1.00;;
7033;SDS011;3558;53.176;10.412;2024-02-16T10:31:38;2.40;;;1.02;;
7033;SDS011;3558;53.176;10.412;2024-02-16T10:34:04;1.80;;;1.03;;
7033;SDS011;3558;53.176;10.412;2024-02-16T10:36:33;1.40;;;0.90;;
7033;SDS011;3558;53.176;10.412;2024-02-16T10:39:04;2.70;;;1.00;;
7033;SDS011;3558;53.176;10.412;2024-02-16T10:41:34;1.75;;;1.05;;
7033;SDS011;3558;53.176;10.412;2024-02-16T10:44:01;2.03;;;0.90;;
7033;SDS011;3558;53.176;10.412;2024-02-16T10:46:28;1.70;;;1.00;;
7033;SDS011;3558;53.176;10.412;2024-02-16T10:48:54;1.60;;;1.00;;
7033;SDS011;3558;53.176;10.412;2024-02-16T10:51:21;2.67;;;1.20;;
7033;SDS011;3558;53.176;10.412;2024-02-16T10:53:51;2.10;;;1.10;;
7033;SDS011;3558;53.176;10.412;2024-02-16T10:56:26;2.53;;;1.05;;
7033;SDS011;3558;53.176;10.412;2024-02-16T10:58:53;2.40;;;1.40;;
7033;SDS011;3558;53.176;10.412;2024-02-16T11:01:19;2.67;;;1.20;;
7033;SDS011;3558;53.176;10.412;2024-02-16T11:03:44;2.77;;;1.30;;
7033;SDS011;3558;53.176;10.412;2024-02-16T11:06:16;2.45;;;1.40;;
7033;SDS011;3558;53.176;10.412;2024-02-16T11:08:42;3.30;;;1.33;;
7033;SDS011;3558;53.176;10.412;2024-02-16T11:11:08;2.05;;;1.40;;
7033;SDS011;3558;53.176;10.412;2024-02-16T11:13:36;2.45;;;1.30;;
7033;SDS011;3558;53.176;10.412;2024-02-16T11:16:03;1.80;;;1.20;;
7033;SDS011;3558;53.176;10.412;2024-02-16T11:18:32;2.08;;;1.17;;
7033;SDS011;3558;53.176;10.412;2024-02-16T11:21:02;2.33;;;1.27;;
7033;SDS011;3558;53.176;10.412;2024-02-16T11:23:29;2.10;;;1.30;;
7033;SDS011;3558;53.176;10.412;2024-02-16T11:26:02;3.10;;;1.38;;
7033;SDS011;3558;53.176;10.412;2024-02-16T11:28:30;1.83;;;1.10;;
7033;SDS011;3558;53.176;10.412;2024-02-16T11:30:57;3.03;;;1.50;;
7033;SDS011;3558;53.176;10.412;2024-02-16T11:33:23;3.15;;;1.50;;
7033;SDS011;3558;53.176;10.412;2024-02-16T11:35:52;1.90;;;1.10;;
7033;SDS011;3558;53.176;10.412;2024-02-16T11:38:21;1.67;;;1.10;;
7033;SDS011;3558;53.176;10.412;2024-02-16T11:40:53;2.40;;;1.30;;
7033;SDS011;3558;53.176;10.412;2024-02-16T11:43:20;2.00;;;1.20;;
7033;SDS011;3558;53.176;10.412;2024-02-16T11:45:47;2.53;;;1.30;;
7033;SDS011;3558;53.176;10.412;2024-02-16T11:48:12;1.90;;;1.20;;
7033;SDS011;3558;53.176;10.412;2024-02-16T11:50:37;1.73;;;1.15;;
7033;SDS011;3558;53.176;10.412;2024-02-16T11:53:03;1.87;;;1.10;;
7033;SDS011;3558;53.176;10.412;2024-02-16T11:55:29;2.10;;;1.30;;
7033;SDS011;3558;53.176;10.412;2024-02-16T11:57:55;1.65;;;1.20;;
7033;SDS011;3558;53.176;10.412;2024-02-16T12:00:21;2.00;;;1.20;;
7033;SDS011;3558;53.176;10.412;2024-02-16T12:02:47;1.60;;;1.00;;
7033;SDS011;3558;53.176;10.412;2024-02-16T12:05:15;2.10;;;0.95;;
7033;SDS011;3558;53.176;10.412;2024-02-16T12:07:41;1.90;;;1.13;;
7033;SDS011;3558;53.176;10.412;2024-02-16T12:10:07;1.67;;;1.20;;
7033;SDS011;3558;53.176;10.412;2024-02-16T12:12:34;1.63;;;1.00;;
7033;SDS011;3558;53.176;10.412;2024-02-16T12:14:59;2.00;;;1.10;;
7033;SDS011;3558;53.176;10.412;2024-02-16T12:17:25;1.27;;;1.10;;
7033;SDS011;3558;53.176;10.412;2024-02-16T12:19:51;1.60;;;1.20;;
7033;SDS011;3558;53.176;10.412;2024-02-16T12:22:17;1.75;;;1.05;;
7033;SDS011;3558;53.176;10.412;2024-02-16T12:24:44;1.85;;;0.95;;
7033;SDS011;3558;53.176;10.412;2024-02-16T12:27:13;1.70;;;1.10;;
7033;SDS011;3558;53.176;10.412;2024-02-16T12:29:39;1.80;;;1.00;;
7033;SDS011;3558;53.176;10.412;2024-02-16T12:32:05;2.20;;;1.30;;
7033;SDS011;3558;53.176;10.412;2024-02-16T12:34:31;2.42;;;1.27;;
7033;SDS011;3558;53.176;10.412;2024-02-16T12:36:57;2.80;;;1.50;;
7033;SDS011;3558;53.176;10.412;2024-02-16T12:39:22;2.33;;;1.30;;
7033;SDS011;3558;53.176;10.412;2024-02-16T12:41:47;2.70;;;1.60;;
7033;SDS011;3558;53.176;10.412;2024-02-16T12:44:14;2.83;;;1.60;;
7033;SDS011;3558;53.176;10.412;2024-02-16T12:46:40;1.95;;;1.30;;
7033;SDS011;3558;53.176;10.412;2024-02-16T12:49:06;2.88;;;1.70;;
7033;SDS011;3558;53.176;10.412;2024-02-16T12:51:32;3.05;;;1.50;;
7033;SDS011;3558;53.176;10.412;2024-02-16T12:53:57;3.60;;;1.63;;
7033;SDS011;3558;53.176;10.412;2024-02-16T12:56:25;2.63;;;1.60;;
7033;SDS011;3558;53.176;10.412;2024-02-16T12:58:51;2.45;;;1.40;;
7033;SDS011;3558;53.176;10.412;2024-02-16T13:01:16;2.47;;;1.60;;
7033;SDS011;3558;53.176;10.412;2024-02-16T13:03:44;2.87;;;1.63;;
7033;SDS011;3558;53.176;10.412;2024-02-16T13:06:10;3.00;;;1.70;;
7033;SDS011;3558;53.176;10.412;2024-02-16T13:08:36;2.58;;;1.60;;
7033;SDS011;3558;53.176;10.412;2024-02-16T13:11:02;3.72;;;1.90;;
7033;SDS011;3558;53.176;10.412;2024-02-16T13:13:28;4.18;;;1.77;;
7033;SDS011;3558;53.176;10.412;2024-02-16T13:15:54;2.90;;;1.80;;
7033;SDS011;3558;53.176;10.412;2024-02-16T13:18:21;2.85;;;1.90;;
7033;SDS011;3558;53.176;10.412;2024-02-16T13:20:46;2.63;;;1.77;;
7033;SDS011;3558;53.176;10.412;2024-02-16T13:23:12;3.63;;;1.80;;
7033;SDS011;3558;53.176;10.412;2024-02-16T13:25:38;3.47;;;1.88;;
7033;SDS011;3558;53.176;10.412;2024-02-16T13:28:03;3.00;;;2.00;;
7033;SDS011;3558;53.176;10.412;2024-02-16T13:30:29;2.50;;;1.73;;
7033;SDS011;3558;53.176;10.412;2024-02-16T13:32:55;2.88;;;1.92;;
7033;SDS011;3558;53.176;10.412;2024-02-16T13:35:22;2.75;;;1.77;;
7033;SDS011;3558;53.176;10.412;2024-02-16T13:37:48;3.08;;;1.65;;
7033;SDS011;3558;53.176;10.412;2024-02-16T13:40:13;4.55;;;1.90;;
7033;SDS011;3558;53.176;10.412;2024-02-16T13:42:39;3.03;;;1.77;;
7033;SDS011;3558;53.176;10.412;2024-02-16T13:45:06;3.17;;;1.50;;
7033;SDS011;3558;53.176;10.412;2024-02-16T13:47:32;2.50;;;1.30;;
7033;SDS011;3558;53.176;10.412;2024-02-16T13:49:57;2.22;;;1.60;;
7033;SDS011;3558;53.176;10.412;2024-02-16T13:52:24;3.97;;;1.50;;
7033;SDS011;3558;53.176;10.412;2024-02-16T13:54:50;3.20;;;1.60;;
7033;SDS011;3558;53.176;10.412;2024-02-16T13:57:16;2.23;;;1.43;;
7033;SDS011;3558;53.176;10.412;2024-02-16T13:59:42;2.35;;;1.45;;
7033;SDS011;3558;53.176;10.412;2024-02-16T14:02:07;3.13;;;1.38;;
7033;SDS011;3558;53.176;10.412;2024-02-16T14:04:33;2.38;;;1.52;;
7033;SDS011;3558;53.176;10.412;2024-02-16T14:06:59;2.67;;;1.77;;
7033;SDS011;3558;53.176;10.412;2024-02-16T14:09:25;2.20;;;1.50;;
7033;SDS011;3558;53.176;10.412;2024-02-16T14:11:51;2.22;;;1.50;;
7033;SDS011;3558;53.176;10.412;2024-02-16T14:14:18;3.25;;;1.80;;
7033;SDS011;3558;53.176;10.412;2024-02-16T14:16:44;2.80;;;1.70;;
7033;SDS011;3558;53.176;10.412;2024-02-16T14:19:10;2.33;;;1.52;;
7033;SDS011;3558;53.176;10.412;2024-02-16T14:21:35;3.00;;;1.58;;
7033;SDS011;3558;53.176;10.412;2024-02-16T14:24:01;3.10;;;2.10;;
7033;SDS011;3558;53.176;10.412;2024-02-16T14:26:26;4.13;;;1.90;;
7033;SDS011;3558;53.176;10.412;2024-02-16T14:28:52;3.53;;;2.10;;
7033;SDS011;3558;53.176;10.412;2024-02-16T14:31:20;3.00;;;1.77;;
7033;SDS011;3558;53.176;10.412;2024-02-16T14:33:46;2.78;;;1.80;;
7033;SDS011;3558;53.176;10.412;2024-02-16T14:36:12;2.78;;;1.80;;
7033;SDS011;3558;53.176;10.412;2024-02-16T14:38:37;2.60;;;1.83;;
7033;SDS011;3558;53.176;10.412;2024-02-16T14:41:03;3.57;;;1.97;;
7033;SDS011;3558;53.176;10.412;2024-02-16T14:43:29;3.70;;;2.10;;
7033;SDS011;3558;53.176;10.412;2024-02-16T14:45:57;3.63;;;2.08;;
7033;SDS011;3558;53.176;10.412;2024-02-16T14:48:22;3.47;;;2.22;;
7033;SDS011;3558;53.176;10.412;2024-02-16T14:50:50;3.13;;;2.17;;
7033;SDS011;3558;53.176;10.412;2024-02-16T14:53:17;2.63;;;2.10;;
7033;SDS011;3558;53.176;10.412;2024-02-16T14:55:43;2.78;;;2.00;;
7033;SDS011;3558;53.176;10.412;2024-02-16T14:58:09;3.63;;;1.97;;
7033;SDS011;3558;53.176;10.412;2024-02-16T15:00:34;3.17;;;2.00;;
7033;SDS011;3558;53.176;10.412;2024-02-16T15:03:01;3.10;;;2.13;;
7033;SDS011;3558;53.176;10.412;2024-02-16T15:05:26;2.90;;;2.20;;
7033;SDS011;3558;53.176;10.412;2024-02-16T15:07:51;4.77;;;2.33;;
7033;SDS011;3558;53.176;10.412;2024-02-16T15:10:17;4.47;;;2.13;;
7033;SDS011;3558;53.176;10.412;2024-02-16T15:12:43;3.60;;;2.20;;
7033;SDS011;3558;53.176;10.412;2024-02-16T15:15:08;4.03;;;2.28;;
7033;SDS011;3558;53.176;10.412;2024-02-16T15:17:34;4.72;;;2.40;;
7033;SDS011;3558;53.176;10.412;2024-02-16T15:19:59;3.93;;;2.20;;
7033;SDS011;3558;53.176;10.412;2024-02-16T15:22:28;3.57;;;2.40;;
7033;SDS011;3558;53.176;10.412;2024-02-16T15:24:53;3.93;;;2.40;;
7033;SDS011;3558;53.176;10.412;2024-02-16T15:27:19;3.25;;;2.30;;
7033;SDS011;3558;53.176;10.412;2024-02-16T15:29:45;5.33;;;3.60;;
7033;SDS011;3558;53.176;10.412;2024-02-16T15:32:10;7.00;;;5.25;;
7033;SDS011;3558;53.176;10.412;2024-02-16T15:34:36;8.87;;;6.40;;
7033;SDS011;3558;53.176;10.412;2024-02-16T15:37:01;9.50;;;6.53;;
7033;SDS011;3558;53.176;10.412;2024-02-16T15:39:28;7.53;;;4.88;;
7033;SDS011;3558;53.176;10.412;2024-02-16T15:41:54;5.10;;;4.23;;
7033;SDS011;3558;53.176;10.412;2024-02-16T15:44:20;7.80;;;4.67;;
7033;SDS011;3558;53.176;10.412;2024-02-16T15:46:45;6.97;;;4.20;;
7033;SDS011;3558;53.176;10.412;2024-02-16T15:49:11;7.00;;;4.50;;
7033;SDS011;3558;53.176;10.412;2024-02-16T15:51:36;5.93;;;3.93;;
7033;SDS011;3558;53.176;10.412;2024-02-16T15:54:02;7.05;;;3.88;;
7033;SDS011;3558;53.176;10.412;2024-02-16T15:56:27;4.43;;;3.53;;
7033;SDS011;3558;53.176;10.412;2024-02-16T15:58:54;5.80;;;3.20;;
7033;SDS011;3558;53.176;10.412;2024-02-16T16:01:24;4.68;;;3.38;;
7033;SDS011;3558;53.176;10.412;2024-02-16T16:03:53;4.93;;;3.10;;
7033;SDS011;3558;53.176;10.412;2024-02-16T16:06:20;5.40;;;3.17;;
7033;SDS011;3558;53.176;10.412;2024-02-16T16:08:45;5.07;;;3.03;;
7033;SDS011;3558;53.176;10.412;2024-02-16T16:11:11;5.25;;;3.15;;